Time;durP1;ratioP1;P1;durP2;ratioP2;P2;SDS_P1;SDS_P2;PMS_P1;PMS_P2;Temp;Humidity;BMP_temperature;BMP_pressure;BME280_temperature;BME280_humidity;BME280_pressure;Samples;Min_cycle;Max_cycle;Signal;HPM_P1;HPM_P2
2022/07/13 00:01:54;;;;;;;5.67;5.17;;;;;;;;;;5000987;28;20426;-49
2022/07/13 00:04:20;;;;;;;5.40;4.70;;;;;;;;;;4994849;28;20410;-49
2022/07/13 00:06:46;;;;;;;4.67;4.33;;;;;;;;;;4994542;28;20410;-48
2022/07/13 00:09:12;;;;;;;3.60;3.40;;;;;;;;;;4994499;28;20413;-49
2022/07/13 00:11:38;;;;;;;5.57;4.27;;;;;;;;;;4994287;28;20911;-48
2022/07/13 00:14:04;;;;;;;4.20;3.90;;;;;;;;;;5007327;28;20418;-49
2022/07/13 00:16:30;;;;;;;4.23;3.93;;;;;;;;;;5013744;28;20399;-48
2022/07/13 00:18:56;;;;;;;4.63;4.20;;;;;;;;;;5013874;28;20429;-49
2022/07/13 00:21:22;;;;;;;4.33;3.93;;;;;;;;;;5013622;28;20420;-48
2022/07/13 00:23:48;;;;;;;8.17;3.93;;;;;;;;;;5013834;28;20410;-48
2022/07/13 00:26:14;;;;;;;4.73;4.30;;;;;;;;;;5013682;28;20486;-48
2022/07/13 00:28:40;;;;;;;3.77;3.47;;;;;;;;;;5012646;28;20989;-48
2022/07/13 00:31:06;;;;;;;4.13;3.80;;;;;;;;;;5005493;28;20419;-49
2022/07/13 00:33:32;;;;;;;4.17;3.80;;;;;;;;;;5013372;28;20840;-50
2022/07/13 00:35:58;;;;;;;3.80;3.50;;;;;;;;;;5004790;28;20498;-48
2022/07/13 00:38:25;;;;;;;3.37;3.10;;;;;;;;;;5010274;28;20871;-49
2022/07/13 00:40:51;;;;;;;3.70;3.40;;;;;;;;;;5005212;28;20418;-49
2022/07/13 00:43:17;;;;;;;4.43;4.03;;;;;;;;;;5004813;28;20437;-49
2022/07/13 00:45:43;;;;;;;4.67;4.37;;;;;;;;;;4998624;28;20982;-48
2022/07/13 00:48:09;;;;;;;5.73;4.20;;;;;;;;;;5009211;28;20469;-50
2022/07/13 00:50:35;;;;;;;4.90;4.40;;;;;;;;;;4998823;28;20437;-49
2022/07/13 00:53:01;;;;;;;4.93;4.53;;;;;;;;;;5003991;28;20425;-48
2022/07/13 00:55:27;;;;;;;4.50;4.10;;;;;;;;;;5005988;28;20633;-48
2022/07/13 00:57:53;;;;;;;5.20;4.70;;;;;;;;;;5009080;28;20444;-49
2022/07/13 01:00:19;;;;;;;16.00;4.10;;;;;;;;;;4996634;28;20419;-49
2022/07/13 01:02:46;;;;;;;7.47;4.40;;;;;;;;;;5005302;28;20415;-50
2022/07/13 01:05:13;;;;;;;4.57;4.17;;;;;;;;;;5003470;28;20775;-50
2022/07/13 01:07:39;;;;;;;5.67;4.47;;;;;;;;;;5006667;28;20942;-48
2022/07/13 01:10:06;;;;;;;4.00;3.70;;;;;;;;;;5009280;28;20472;-50
2022/07/13 01:12:33;;;;;;;4.27;3.90;;;;;;;;;;4998109;28;20462;-48
2022/07/13 01:14:59;;;;;;;4.03;3.73;;;;;;;;;;5004011;28;20415;-48
2022/07/13 01:17:26;;;;;;;5.27;4.87;;;;;;;;;;5005095;28;20780;-49
2022/07/13 01:19:52;;;;;;;4.97;3.70;;;;;;;;;;5012527;28;20414;-48
2022/07/13 01:22:21;;;;;;;4.47;4.07;;;;;;;;;;4993487;28;20414;-47
2022/07/13 01:24:47;;;;;;;6.17;5.57;;;;;;;;;;4993056;28;20491;-47
2022/07/13 01:27:13;;;;;;;4.40;4.00;;;;;;;;;;4998195;28;20971;-47
2022/07/13 01:29:40;;;;;;;6.20;4.93;;;;;;;;;;5012296;28;20420;-46
2022/07/13 01:32:06;;;;;;;6.40;4.80;;;;;;;;;;5010886;28;20441;-46
2022/07/13 01:34:32;;;;;;;5.07;4.60;;;;;;;;;;5004388;28;20426;-47
2022/07/13 01:36:58;;;;;;;5.90;4.70;;;;;;;;;;5012049;28;20506;-46
2022/07/13 01:39:25;;;;;;;4.17;3.87;;;;;;;;;;5012201;28;20928;-48
2022/07/13 01:41:51;;;;;;;5.80;5.20;;;;;;;;;;5011973;28;20395;-46
2022/07/13 01:44:17;;;;;;;5.43;4.93;;;;;;;;;;5012285;28;20399;-47
2022/07/13 01:46:43;;;;;;;5.53;5.00;;;;;;;;;;5011989;28;20910;-46
2022/07/13 01:49:09;;;;;;;5.50;4.97;;;;;;;;;;5011311;28;20486;-46
2022/07/13 01:51:35;;;;;;;5.33;4.83;;;;;;;;;;5011653;28;20562;-46
2022/07/13 01:54:01;;;;;;;5.37;4.97;;;;;;;;;;5012164;28;20783;-47
2022/07/13 01:56:27;;;;;;;4.60;4.20;;;;;;;;;;5012437;28;20915;-46
2022/07/13 01:58:53;;;;;;;5.07;4.67;;;;;;;;;;5011765;28;20448;-47
2022/07/13 02:01:19;;;;;;;4.50;4.00;;;;;;;;;;5012014;28;20447;-47
2022/07/13 02:03:45;;;;;;;4.73;4.43;;;;;;;;;;5012238;28;20434;-47
2022/07/13 02:06:11;;;;;;;4.77;4.43;;;;;;;;;;5012080;28;20846;-48
2022/07/13 02:08:37;;;;;;;5.13;4.73;;;;;;;;;;5011600;28;20560;-49
2022/07/13 02:11:03;;;;;;;8.33;4.83;;;;;;;;;;5011796;28;20403;-46
2022/07/13 02:13:29;;;;;;;6.50;5.47;;;;;;;;;;5012036;28;20400;-46
2022/07/13 02:15:55;;;;;;;5.37;4.87;;;;;;;;;;5011343;28;20405;-46
2022/07/13 02:18:21;;;;;;;5.40;4.90;;;;;;;;;;5010905;28;20443;-47
2022/07/13 02:20:47;;;;;;;5.43;4.93;;;;;;;;;;5009814;28;20430;-48
2022/07/13 02:23:14;;;;;;;4.70;4.20;;;;;;;;;;5011078;28;20499;-46
2022/07/13 02:25:40;;;;;;;6.70;5.47;;;;;;;;;;5011867;28;20464;-47
2022/07/13 02:28:06;;;;;;;4.70;4.23;;;;;;;;;;5011343;28;20464;-46
2022/07/13 02:30:33;;;;;;;5.20;4.80;;;;;;;;;;5011108;28;20420;-46
2022/07/13 02:32:59;;;;;;;5.73;5.23;;;;;;;;;;5011872;28;20378;-48
2022/07/13 02:35:25;;;;;;;6.87;5.90;;;;;;;;;;5011625;28;20474;-49
2022/07/13 02:37:51;;;;;;;6.50;5.90;;;;;;;;;;5011467;28;20455;-50
2022/07/13 02:40:17;;;;;;;5.70;4.03;;;;;;;;;;5011802;28;20990;-47
2022/07/13 02:42:44;;;;;;;7.17;5.40;;;;;;;;;;5012055;28;20404;-47
2022/07/13 02:45:10;;;;;;;5.50;5.00;;;;;;;;;;5011823;28;20466;-48
2022/07/13 02:47:36;;;;;;;6.20;5.60;;;;;;;;;;5011392;28;20463;-49
2022/07/13 02:50:03;;;;;;;6.50;4.70;;;;;;;;;;5011336;28;20423;-50
2022/07/13 02:52:29;;;;;;;5.00;4.60;;;;;;;;;;5011410;28;20428;-49
2022/07/13 02:54:54;;;;;;;5.63;5.10;;;;;;;;;;5011669;28;20407;-49
2022/07/13 02:57:20;;;;;;;7.93;4.97;;;;;;;;;;5011289;28;20431;-51
2022/07/13 02:59:46;;;;;;;7.20;5.80;;;;;;;;;;5012198;28;20496;-46
2022/07/13 03:02:12;;;;;;;5.77;5.27;;;;;;;;;;5015141;28;20403;-46
2022/07/13 03:04:38;;;;;;;7.53;7.00;;;;;;;;;;5015169;28;20487;-47
2022/07/13 03:07:04;;;;;;;6.03;5.37;;;;;;;;;;5014731;28;21043;-46
2022/07/13 03:09:30;;;;;;;6.20;5.60;;;;;;;;;;5015176;28;20481;-48
2022/07/13 03:11:56;;;;;;;5.27;4.87;;;;;;;;;;5015167;28;20405;-47
2022/07/13 03:14:22;;;;;;;6.87;5.30;;;;;;;;;;5015044;28;20769;-48
2022/07/13 03:16:49;;;;;;;5.43;4.93;;;;;;;;;;5014878;28;20404;-48
2022/07/13 03:19:15;;;;;;;5.37;4.90;;;;;;;;;;5014373;28;20416;-48
2022/07/13 03:21:41;;;;;;;5.47;4.77;;;;;;;;;;5014796;28;20403;-46
2022/07/13 03:24:07;;;;;;;7.10;5.57;;;;;;;;;;5014376;28;20408;-48
2022/07/13 03:26:33;;;;;;;6.00;5.60;;;;;;;;;;5014508;28;20401;-49
2022/07/13 03:28:59;;;;;;;6.23;5.77;;;;;;;;;;5014363;28;21008;-47
2022/07/13 03:31:26;;;;;;;6.23;5.60;;;;;;;;;;5014541;28;20500;-47
2022/07/13 03:33:52;;;;;;;5.80;5.30;;;;;;;;;;5014409;28;20400;-47
2022/07/13 03:36:18;;;;;;;6.37;5.80;;;;;;;;;;5015026;28;20399;-47
2022/07/13 03:38:44;;;;;;;5.77;5.27;;;;;;;;;;5014314;28;20969;-47
2022/07/13 03:41:10;;;;;;;7.57;6.20;;;;;;;;;;5014495;28;20466;-48
2022/07/13 03:43:36;;;;;;;7.00;6.10;;;;;;;;;;5014645;28;20412;-49
2022/07/13 03:46:02;;;;;;;6.87;6.03;;;;;;;;;;5014460;28;20403;-47
2022/07/13 03:48:28;;;;;;;7.50;5.33;;;;;;;;;;5013879;28;20491;-46
2022/07/13 03:50:54;;;;;;;6.77;5.97;;;;;;;;;;5014156;28;20411;-46
2022/07/13 03:53:20;;;;;;;5.03;4.57;;;;;;;;;;5014443;28;20405;-46
2022/07/13 03:55:46;;;;;;;5.30;4.23;;;;;;;;;;5014180;28;20949;-46
2022/07/13 03:58:12;;;;;;;5.47;4.97;;;;;;;;;;5013856;28;20451;-47
2022/07/13 04:00:38;;;;;;;5.27;4.60;;;;;;;;;;5013940;28;20408;-46
2022/07/13 04:03:04;;;;;;;4.83;4.43;;;;;;;;;;5014137;28;20441;-47
2022/07/13 04:05:30;;;;;;;4.60;4.30;;;;;;;;;;5014304;28;20823;-46
2022/07/13 04:07:57;;;;;;;5.37;4.87;;;;;;;;;;5013920;28;20562;-47
2022/07/13 04:10:23;;;;;;;5.60;5.10;;;;;;;;;;5013971;28;20406;-46
2022/07/13 04:12:49;;;;;;;5.27;4.27;;;;;;;;;;5013488;28;20908;-48
2022/07/13 04:15:15;;;;;;;8.60;4.13;;;;;;;;;;5013871;28;20412;-46
2022/07/13 04:17:42;;;;;;;3.87;3.57;;;;;;;;;;5013373;28;20467;-47
2022/07/13 04:20:08;;;;;;;3.73;3.40;;;;;;;;;;5013718;28;20431;-47
2022/07/13 04:22:35;;;;;;;3.80;3.50;;;;;;;;;;5013938;28;20833;-49
2022/07/13 04:25:01;;;;;;;6.00;3.93;;;;;;;;;;5013778;28;20411;-47
2022/07/13 04:27:27;;;;;;;5.10;4.60;;;;;;;;;;5013125;28;20562;-49
2022/07/13 04:29:53;;;;;;;5.60;4.97;;;;;;;;;;5012579;28;20887;-46
2022/07/13 04:32:19;;;;;;;4.53;3.90;;;;;;;;;;5013237;28;20411;-47
2022/07/13 04:34:45;;;;;;;4.53;4.10;;;;;;;;;;5013544;28;20440;-46
2022/07/13 04:37:11;;;;;;;4.60;4.00;;;;;;;;;;5013397;28;20430;-47
2022/07/13 04:39:39;;;;;;;4.03;3.73;;;;;;;;;;5013356;28;20449;-47
2022/07/13 04:42:05;;;;;;;4.07;3.67;;;;;;;;;;5013299;28;20406;-46
2022/07/13 04:44:31;;;;;;;4.33;3.70;;;;;;;;;;5013438;28;20971;-47
2022/07/13 04:46:57;;;;;;;4.43;3.83;;;;;;;;;;5013106;28;20773;-46
2022/07/13 04:49:23;;;;;;;4.33;4.03;;;;;;;;;;5012996;28;20486;-49
2022/07/13 04:51:50;;;;;;;4.37;3.97;;;;;;;;;;5012723;28;20414;-48
2022/07/13 04:54:19;;;;;;;4.13;3.60;;;;;;;;;;5012934;28;20891;-46
2022/07/13 04:56:45;;;;;;;4.70;4.33;;;;;;;;;;5013063;28;20776;-49
2022/07/13 04:59:12;;;;;;;4.10;3.80;;;;;;;;;;5012602;28;20783;-49
2022/07/13 05:01:38;;;;;;;4.43;4.10;;;;;;;;;;5012123;28;20420;-48
2022/07/13 05:04:04;;;;;;;4.63;4.23;;;;;;;;;;5013088;28;20896;-48
2022/07/13 05:06:30;;;;;;;4.97;3.97;;;;;;;;;;5013040;28;20415;-47
2022/07/13 05:08:56;;;;;;;5.53;5.00;;;;;;;;;;5012489;28;20969;-50
2022/07/13 05:11:22;;;;;;;4.73;4.30;;;;;;;;;;5012522;28;20951;-50
2022/07/13 05:13:48;;;;;;;4.57;4.17;;;;;;;;;;5012832;28;20441;-47
2022/07/13 05:16:14;;;;;;;5.33;4.83;;;;;;;;;;5013029;28;20407;-47
2022/07/13 05:18:40;;;;;;;4.63;4.33;;;;;;;;;;5011399;28;20497;-48
2022/07/13 05:21:06;;;;;;;14.13;4.70;;;;;;;;;;5010707;28;20445;-48
2022/07/13 05:23:32;;;;;;;6.50;4.30;;;;;;;;;;5010517;28;20411;-49
2022/07/13 05:25:59;;;;;;;4.37;4.00;;;;;;;;;;5012671;28;20501;-47
2022/07/13 05:28:25;;;;;;;4.20;3.83;;;;;;;;;;5012095;28;20451;-47
2022/07/13 05:30:51;;;;;;;4.30;3.90;;;;;;;;;;5012272;28;20777;-46
2022/07/13 05:33:18;;;;;;;4.03;3.53;;;;;;;;;;5012640;28;20407;-46
2022/07/13 05:35:44;;;;;;;4.20;3.80;;;;;;;;;;5012406;28;20403;-47
2022/07/13 05:38:10;;;;;;;11.50;4.07;;;;;;;;;;5012073;28;20458;-48
2022/07/13 05:40:36;;;;;;;4.40;4.00;;;;;;;;;;5012175;28;20399;-49
2022/07/13 05:43:02;;;;;;;3.83;3.53;;;;;;;;;;5012290;28;20403;-50
2022/07/13 05:45:28;;;;;;;4.43;4.03;;;;;;;;;;5011900;28;20567;-47
2022/07/13 05:47:54;;;;;;;4.67;3.50;;;;;;;;;;5011965;28;20470;-47
2022/07/13 05:50:20;;;;;;;2.80;2.67;;;;;;;;;;5012192;28;20418;-47
2022/07/13 05:52:46;;;;;;;3.00;2.80;;;;;;;;;;5012359;28;20919;-48
2022/07/13 05:55:12;;;;;;;2.57;2.37;;;;;;;;;;5012170;28;20450;-47
2022/07/13 05:57:38;;;;;;;3.43;3.13;;;;;;;;;;5011841;28;20423;-48
2022/07/13 06:00:06;;;;;;;2.80;2.60;;;;;;;;;;5011960;28;20465;-49
2022/07/13 06:02:32;;;;;;;3.20;2.90;;;;;;;;;;5012009;28;20538;-49
2022/07/13 06:04:58;;;;;;;3.50;3.20;;;;;;;;;;5011035;28;20488;-50
2022/07/13 06:07:24;;;;;;;4.10;3.23;;;;;;;;;;5011953;28;20574;-50
2022/07/13 06:09:50;;;;;;;2.90;2.70;;;;;;;;;;5011717;28;20431;-47
2022/07/13 06:12:16;;;;;;;3.00;2.53;;;;;;;;;;5011777;28;20395;-47
2022/07/13 06:14:42;;;;;;;2.63;2.17;;;;;;;;;;5011707;28;20808;-47
2022/07/13 06:17:08;;;;;;;2.50;2.30;;;;;;;;;;5011855;28;20420;-47
2022/07/13 06:19:34;;;;;;;3.33;2.40;;;;;;;;;;5012279;28;20403;-47
2022/07/13 06:22:00;;;;;;;2.30;2.10;;;;;;;;;;5011729;28;20440;-48
2022/07/13 06:24:26;;;;;;;2.03;1.93;;;;;;;;;;5011776;28;20418;-48
2022/07/13 06:26:52;;;;;;;2.70;2.43;;;;;;;;;;5011593;28;20503;-48
2022/07/13 06:29:18;;;;;;;2.80;2.20;;;;;;;;;;5011551;28;20408;-47
2022/07/13 06:31:44;;;;;;;2.43;2.30;;;;;;;;;;5011185;28;20391;-47
2022/07/13 06:34:10;;;;;;;8.53;2.43;;;;;;;;;;5011638;28;20413;-48
2022/07/13 06:36:38;;;;;;;2.73;2.17;;;;;;;;;;5015472;28;20411;-49
2022/07/13 06:39:04;;;;;;;2.40;2.30;;;;;;;;;;5015456;28;20972;-47
2022/07/13 06:41:30;;;;;;;2.50;2.30;;;;;;;;;;5015524;28;20409;-47
2022/07/13 06:43:56;;;;;;;2.20;2.00;;;;;;;;;;5015384;28;20790;-47
2022/07/13 06:46:23;;;;;;;4.20;2.00;;;;;;;;;;5013175;28;20502;-48
2022/07/13 06:48:49;;;;;;;2.97;2.10;;;;;;;;;;5015193;28;20827;-47
2022/07/13 06:51:15;;;;;;;2.20;2.10;;;;;;;;;;5015207;28;20490;-51
2022/07/13 06:53:41;;;;;;;3.07;2.80;;;;;;;;;;5014617;28;20473;-50
2022/07/13 06:56:09;;;;;;;2.33;2.13;;;;;;;;;;5015385;28;20443;-47
2022/07/13 06:58:35;;;;;;;2.57;2.40;;;;;;;;;;5015335;28;20477;-47
2022/07/13 07:01:01;;;;;;;2.10;2.00;;;;;;;;;;5014654;28;20781;-47
2022/07/13 07:03:27;;;;;;;2.20;1.70;;;;;;;;;;5014593;28;20411;-47
2022/07/13 07:05:53;;;;;;;2.93;2.40;;;;;;;;;;5012171;28;20910;-49
2022/07/13 07:08:19;;;;;;;2.13;2.00;;;;;;;;;;5013259;28;20827;-47
2022/07/13 07:10:46;;;;;;;1.90;1.80;;;;;;;;;;5014242;28;20403;-49
2022/07/13 07:13:12;;;;;;;4.23;2.13;;;;;;;;;;5013665;28;20965;-47
2022/07/13 07:15:39;;;;;;;3.00;2.23;;;;;;;;;;5013936;28;20505;-48
2022/07/13 07:18:05;;;;;;;1.97;1.87;;;;;;;;;;5014631;28;20825;-47
2022/07/13 07:20:31;;;;;;;2.30;1.80;;;;;;;;;;5013656;28;20422;-47
2022/07/13 07:22:57;;;;;;;2.57;1.97;;;;;;;;;;5015803;28;20403;-48
2022/07/13 07:25:23;;;;;;;1.87;1.77;;;;;;;;;;5015137;28;20415;-47
2022/07/13 07:27:50;;;;;;;2.00;1.90;;;;;;;;;;5014121;28;20498;-47
2022/07/13 07:30:16;;;;;;;1.90;1.80;;;;;;;;;;5014592;28;20400;-48
2022/07/13 07:32:42;;;;;;;1.80;1.70;;;;;;;;;;5014670;28;20406;-48
2022/07/13 07:35:08;;;;;;;3.00;2.17;;;;;;;;;;5014744;28;20403;-47
2022/07/13 07:37:37;;;;;;;1.93;1.83;;;;;;;;;;5014048;28;20450;-47
2022/07/13 07:40:03;;;;;;;1.70;1.60;;;;;;;;;;5014601;28;20457;-49
2022/07/13 07:42:30;;;;;;;2.63;2.43;;;;;;;;;;5014300;28;20409;-48
2022/07/13 07:44:56;;;;;;;2.60;2.07;;;;;;;;;;5014937;28;20814;-48
2022/07/13 07:47:25;;;;;;;2.10;2.00;;;;;;;;;;5012661;28;20509;-47
2022/07/13 07:49:51;;;;;;;2.30;2.20;;;;;;;;;;5014460;28;20407;-47
2022/07/13 07:52:17;;;;;;;1.83;1.73;;;;;;;;;;5014640;28;20415;-47
2022/07/13 07:54:43;;;;;;;1.83;1.73;;;;;;;;;;5013161;28;20530;-47
2022/07/13 07:57:09;;;;;;;3.83;2.10;;;;;;;;;;5013918;28;20438;-47
2022/07/13 07:59:35;;;;;;;2.30;2.10;;;;;;;;;;5014348;28;20418;-49
2022/07/13 08:02:01;;;;;;;2.50;2.23;;;;;;;;;;5013354;28;20799;-47
2022/07/13 08:04:27;;;;;;;4.13;2.03;;;;;;;;;;5013621;28;20482;-48
2022/07/13 08:06:53;;;;;;;2.40;2.20;;;;;;;;;;5013633;28;20547;-49
2022/07/13 08:09:19;;;;;;;2.10;2.00;;;;;;;;;;5013988;28;20462;-49
2022/07/13 08:11:45;;;;;;;2.93;2.20;;;;;;;;;;5013397;28;20895;-50
2022/07/13 08:14:11;;;;;;;2.33;2.17;;;;;;;;;;5013341;28;20395;-46
2022/07/13 08:16:38;;;;;;;3.73;1.77;;;;;;;;;;5013763;28;20915;-51
2022/07/13 08:19:04;;;;;;;3.47;2.33;;;;;;;;;;5013771;28;20427;-50
2022/07/13 08:21:30;;;;;;;2.10;1.67;;;;;;;;;;5013610;28;20407;-50
2022/07/13 08:23:56;;;;;;;2.37;2.03;;;;;;;;;;5013776;28;21161;-48
2022/07/13 08:26:27;;;;;;;1.97;1.87;;;;;;;;;;5013537;28;20427;-47
2022/07/13 08:28:54;;;;;;;2.00;1.80;;;;;;;;;;5013604;28;20466;-47
2022/07/13 08:31:21;;;;;;;4.10;2.27;;;;;;;;;;5013445;28;20427;-47
2022/07/13 08:39:17;;;;;;;2.30;2.10;;;;;;;;;;5013400;28;20812;-47
2022/07/13 08:41:43;;;;;;;3.87;2.13;;;;;;;;;;5013285;28;20784;-47
2022/07/13 08:44:09;;;;;;;1.93;1.77;;;;;;;;;;5012950;28;20506;-47
2022/07/13 08:46:35;;;;;;;3.07;2.17;;;;;;;;;;5012913;28;20423;-47
2022/07/13 08:49:01;;;;;;;3.47;1.77;;;;;;;;;;5012951;28;20822;-47
2022/07/13 08:51:28;;;;;;;2.57;2.37;;;;;;;;;;5013158;28;20395;-48
2022/07/13 08:53:55;;;;;;;2.17;1.67;;;;;;;;;;5013325;28;20418;-49
2022/07/13 08:56:21;;;;;;;2.20;1.97;;;;;;;;;;5012730;28;20465;-47
2022/07/13 08:58:47;;;;;;;2.00;1.80;;;;;;;;;;5012432;28;20478;-47
2022/07/13 09:01:14;;;;;;;2.00;1.90;;;;;;;;;;5012566;28;20497;-48
2022/07/13 09:03:40;;;;;;;1.90;1.80;;;;;;;;;;5013150;28;20422;-48
2022/07/13 09:06:06;;;;;;;2.23;2.00;;;;;;;;;;5013085;28;20408;-51
2022/07/13 09:08:42;;;;;;;3.10;2.20;;;;;;;;;;5012957;28;20481;-52
2022/07/13 09:11:08;;;;;;;2.70;2.50;;;;;;;;;;5012688;28;20903;-53
2022/07/13 09:13:41;;;;;;;4.00;2.30;;;;;;;;;;5012539;28;20438;-52
2022/07/13 09:16:17;;;;;;;2.23;2.00;;;;;;;;;;5012961;28;20462;-52
2022/07/13 09:18:44;;;;;;;2.30;2.10;;;;;;;;;;5013086;28;20422;-51
2022/07/13 09:21:10;;;;;;;4.40;2.20;;;;;;;;;;5012465;28;20400;-51
2022/07/13 09:23:36;;;;;;;4.60;2.30;;;;;;;;;;5012239;28;20419;-52
2022/07/13 09:26:02;;;;;;;2.93;1.73;;;;;;;;;;5012614;28;20438;-51
2022/07/13 09:28:40;;;;;;;2.73;2.50;;;;;;;;;;5012566;28;20465;-52
2022/07/13 09:31:06;;;;;;;2.30;2.10;;;;;;;;;;5009586;28;20964;-51
2022/07/13 09:33:33;;;;;;;2.53;2.33;;;;;;;;;;5008591;28;20407;-50
2022/07/13 09:36:08;;;;;;;2.37;2.17;;;;;;;;;;5010590;28;20407;-49
2022/07/13 09:38:34;;;;;;;2.20;2.00;;;;;;;;;;4999234;28;20821;-49
2022/07/13 09:41:18;;;;;;;4.07;2.20;;;;;;;;;;5012156;28;20411;-52
2022/07/13 09:46:51;;;;;;;2.50;2.10;;;;;;;;;;5012403;28;20452;-52
2022/07/13 09:49:18;;;;;;;3.17;2.10;;;;;;;;;;5011970;28;20450;-50
2022/07/13 09:51:45;;;;;;;3.33;2.53;;;;;;;;;;5012252;28;20407;-49
2022/07/13 09:54:11;;;;;;;2.10;2.00;;;;;;;;;;5012282;28;20399;-50
2022/07/13 09:56:39;;;;;;;2.40;2.20;;;;;;;;;;5012305;28;20403;-49
2022/07/13 09:59:05;;;;;;;2.90;2.37;;;;;;;;;;5011887;28;20470;-49
2022/07/13 10:01:33;;;;;;;2.77;2.50;;;;;;;;;;5011940;28;20907;-50
2022/07/13 10:03:59;;;;;;;4.47;2.23;;;;;;;;;;5012226;28;20485;-49
2022/07/13 10:06:25;;;;;;;2.40;2.20;;;;;;;;;;5012159;28;20903;-49
2022/07/13 10:08:53;;;;;;;2.77;2.13;;;;;;;;;;5011692;28;20471;-49
2022/07/13 10:11:19;;;;;;;2.03;1.93;;;;;;;;;;5011439;28;20404;-49
2022/07/13 10:13:46;;;;;;;3.97;2.10;;;;;;;;;;5011881;28;20923;-49
2022/07/13 10:16:12;;;;;;;1.90;1.80;;;;;;;;;;5012099;28;21009;-49
2022/07/13 10:18:41;;;;;;;2.10;1.93;;;;;;;;;;5011672;28;20433;-49
2022/07/13 10:21:10;;;;;;;2.10;2.00;;;;;;;;;;5011382;28;20442;-49
2022/07/13 10:23:37;;;;;;;3.10;2.13;;;;;;;;;;5010709;28;20414;-49
2022/07/13 10:26:04;;;;;;;2.60;2.40;;;;;;;;;;5011950;28;20431;-49
2022/07/13 10:28:30;;;;;;;2.17;2.07;;;;;;;;;;5013966;28;20454;-51
2022/07/13 10:30:56;;;;;;;3.33;2.33;;;;;;;;;;5027899;28;20511;-49
2022/07/13 10:33:24;;;;;;;1.83;1.73;;;;;;;;;;5011865;28;20410;-48
2022/07/13 10:35:58;;;;;;;5.57;2.70;;;;;;;;;;5011869;28;20407;-49
2022/07/13 10:38:28;;;;;;;2.47;2.27;;;;;;;;;;5011623;28;20448;-50
2022/07/13 10:41:13;;;;;;;2.10;2.00;;;;;;;;;;5011142;28;20423;-47
2022/07/13 10:43:39;;;;;;;2.17;1.83;;;;;;;;;;5004336;28;20423;-50
2022/07/13 10:46:05;;;;;;;9.13;2.60;;;;;;;;;;5010719;28;20450;-50
2022/07/13 10:48:34;;;;;;;2.10;2.00;;;;;;;;;;5009348;28;20489;-49
2022/07/13 10:51:01;;;;;;;2.60;2.40;;;;;;;;;;5010946;28;20545;-49
2022/07/13 10:53:50;;;;;;;3.93;2.37;;;;;;;;;;5011244;28;20403;-49
2022/07/13 10:56:20;;;;;;;2.27;2.07;;;;;;;;;;4998211;28;20502;-49
2022/07/13 10:58:49;;;;;;;4.37;2.00;;;;;;;;;;5000787;28;20912;-50
2022/07/13 11:01:32;;;;;;;2.43;1.97;;;;;;;;;;5005630;28;20415;-48
2022/07/13 11:03:58;;;;;;;2.03;1.87;;;;;;;;;;4995582;28;20463;-50
2022/07/13 11:06:24;;;;;;;1.93;1.83;;;;;;;;;;5010989;28;20790;-51
2022/07/13 11:09:09;;;;;;;2.30;2.10;;;;;;;;;;5010941;28;20935;-50
2022/07/13 11:11:42;;;;;;;1.70;1.60;;;;;;;;;;4996866;28;20776;-48
2022/07/13 11:14:28;;;;;;;1.87;1.53;;;;;;;;;;5004149;28;20501;-53
2022/07/13 11:16:54;;;;;;;3.10;2.20;;;;;;;;;;5011009;28;20422;-53
2022/07/13 11:19:40;;;;;;;2.00;1.83;;;;;;;;;;5007114;28;20472;-52
2022/07/13 11:22:10;;;;;;;1.97;1.77;;;;;;;;;;5011916;28;20422;-51
2022/07/13 11:27:25;;;;;;;3.17;2.03;;;;;;;;;;5015170;28;20458;-51
2022/07/13 11:29:57;;;;;;;2.00;1.90;;;;;;;;;;5014803;28;20407;-49
2022/07/13 11:32:23;;;;;;;3.67;2.10;;;;;;;;;;5014501;28;20419;-49
2022/07/13 11:34:49;;;;;;;5.27;2.70;;;;;;;;;;5014764;28;20899;-50
2022/07/13 11:37:15;;;;;;;2.30;2.10;;;;;;;;;;5014273;28;20473;-49
2022/07/13 11:39:41;;;;;;;1.93;1.83;;;;;;;;;;5014837;28;20407;-49
2022/07/13 11:42:07;;;;;;;3.03;2.20;;;;;;;;;;5014109;28;20930;-48
2022/07/13 11:44:34;;;;;;;2.40;2.13;;;;;;;;;;5014523;28;20481;-49
2022/07/13 11:47:04;;;;;;;3.30;2.50;;;;;;;;;;5014577;28;20750;-50
2022/07/13 11:49:42;;;;;;;3.63;2.60;;;;;;;;;;5014476;28;20558;-50
2022/07/13 11:52:08;;;;;;;9.63;2.40;;;;;;;;;;5013932;28;20779;-49
2022/07/13 11:54:34;;;;;;;4.13;1.97;;;;;;;;;;5014105;28;20411;-50
2022/07/13 11:57:00;;;;;;;2.57;2.37;;;;;;;;;;5014124;28;20419;-50
2022/07/13 11:59:42;;;;;;;2.20;2.00;;;;;;;;;;5014451;28;20419;-51
2022/07/13 12:02:11;;;;;;;2.00;1.90;;;;;;;;;;5013325;28;20480;-51
2022/07/13 12:04:40;;;;;;;3.90;2.10;;;;;;;;;;5014241;28;20404;-51
2022/07/13 12:07:19;;;;;;;2.00;1.90;;;;;;;;;;5013468;28;20453;-52
2022/07/13 12:09:52;;;;;;;1.83;1.73;;;;;;;;;;5013943;28;20399;-51
2022/07/13 12:12:19;;;;;;;2.13;1.93;;;;;;;;;;5013489;28;20419;-52
2022/07/13 12:14:46;;;;;;;2.07;1.97;;;;;;;;;;5013969;28;20395;-51
2022/07/13 12:17:12;;;;;;;1.73;1.63;;;;;;;;;;5013901;28;20425;-52
2022/07/13 12:19:38;;;;;;;3.30;1.90;;;;;;;;;;5013725;28;20478;-51
2022/07/13 12:22:06;;;;;;;3.87;1.50;;;;;;;;;;5012525;28;20903;-50
2022/07/13 12:24:32;;;;;;;2.00;1.47;;;;;;;;;;5013849;28;20469;-51
2022/07/13 12:26:58;;;;;;;3.00;1.80;;;;;;;;;;5013530;28;20395;-52
2022/07/13 12:29:31;;;;;;;3.43;1.70;;;;;;;;;;5013559;28;20902;-50
2022/07/13 12:31:57;;;;;;;1.70;1.60;;;;;;;;;;5013045;28;20419;-51
2022/07/13 12:34:24;;;;;;;2.97;1.97;;;;;;;;;;5013221;28;20837;-51
2022/07/13 12:36:50;;;;;;;3.93;1.93;;;;;;;;;;5013584;28;20434;-51
2022/07/13 12:39:35;;;;;;;6.30;2.30;;;;;;;;;;5013371;28;20419;-50
2022/07/13 12:42:02;;;;;;;3.83;2.00;;;;;;;;;;5012406;28;20407;-49
2022/07/13 12:44:29;;;;;;;2.50;2.30;;;;;;;;;;5012962;28;20777;-51
2022/07/13 12:46:58;;;;;;;3.50;2.37;;;;;;;;;;5013005;28;20446;-52
2022/07/13 12:49:29;;;;;;;2.30;2.07;;;;;;;;;;5013187;28;20508;-52
2022/07/13 12:51:55;;;;;;;1.83;1.73;;;;;;;;;;5013068;28;20772;-52
2022/07/13 12:54:46;;;;;;;1.87;1.77;;;;;;;;;;5006565;28;20833;-52
2022/07/13 12:57:21;;;;;;;3.23;1.60;;;;;;;;;;5005467;28;20569;-50
2022/07/13 12:59:57;;;;;;;2.30;2.10;;;;;;;;;;5012890;28;20422;-51
2022/07/13 13:02:23;;;;;;;2.37;2.27;;;;;;;;;;5008386;28;20489;-51
2022/07/13 13:04:49;;;;;;;5.00;2.20;;;;;;;;;;5012930;28;20727;-51
2022/07/13 13:07:17;;;;;;;1.97;1.80;;;;;;;;;;5012942;28;20438;-50
2022/07/13 13:09:42;;;;;;;2.73;1.70;;;;;;;;;;5010540;28;20601;-52
2022/07/13 13:12:08;;;;;;;5.57;1.97;;;;;;;;;;5010761;28;20407;-52
2022/07/13 13:14:34;;;;;;;2.17;2.07;;;;;;;;;;5011029;28;20420;-52
2022/07/13 13:17:00;;;;;;;2.77;1.97;;;;;;;;;;5010888;28;20403;-50
2022/07/13 13:19:26;;;;;;;1.90;1.80;;;;;;;;;;5010532;28;20188;-50
2022/07/13 13:21:52;;;;;;;2.00;1.90;;;;;;;;;;5011351;28;20255;-50
2022/07/13 13:24:18;;;;;;;2.53;2.33;;;;;;;;;;5012176;28;20172;-50
2022/07/13 13:26:44;;;;;;;1.90;1.80;;;;;;;;;;5012779;28;20407;-49
2022/07/13 13:31:56;;;;;;;3.77;2.20;;;;;;;;;;5012175;28;20569;-49
2022/07/13 13:34:22;;;;;;;3.33;2.30;;;;;;;;;;5010235;28;20407;-50
2022/07/13 13:36:48;;;;;;;2.10;2.00;;;;;;;;;;5010466;28;20394;-48
2022/07/13 13:39:16;;;;;;;2.50;2.30;;;;;;;;;;5014620;28;20793;-49
2022/07/13 13:41:46;;;;;;;2.37;2.00;;;;;;;;;;5009446;28;20455;-52
2022/07/13 13:44:13;;;;;;;2.33;2.13;;;;;;;;;;5014914;28;20844;-49
2022/07/13 13:46:39;;;;;;;2.90;1.90;;;;;;;;;;5015540;28;20422;-52
2022/07/13 13:49:06;;;;;;;2.90;2.23;;;;;;;;;;5014709;28;20466;-48
2022/07/13 13:51:32;;;;;;;3.03;1.80;;;;;;;;;;5015348;28;20431;-49
2022/07/13 13:53:58;;;;;;;2.97;1.90;;;;;;;;;;5018013;28;20835;-48
2022/07/13 13:56:24;;;;;;;4.90;2.10;;;;;;;;;;5013483;28;20399;-50
2022/07/13 13:58:50;;;;;;;2.60;1.93;;;;;;;;;;5015053;28;20427;-50
2022/07/13 14:01:16;;;;;;;2.10;2.00;;;;;;;;;;5010886;28;20435;-50
2022/07/13 14:03:43;;;;;;;2.33;2.07;;;;;;;;;;5011764;28;20896;-50
2022/07/13 14:06:09;;;;;;;2.20;2.00;;;;;;;;;;5012323;28;20413;-50
2022/07/13 14:08:36;;;;;;;3.40;2.30;;;;;;;;;;5012210;28;20544;-49
2022/07/13 14:11:02;;;;;;;3.60;2.20;;;;;;;;;;5011683;28;20399;-49
2022/07/13 14:13:28;;;;;;;3.20;2.10;;;;;;;;;;5011805;28;20490;-51
2022/07/13 14:15:54;;;;;;;2.00;1.90;;;;;;;;;;5011658;28;20505;-50
2022/07/13 14:18:26;;;;;;;2.00;1.90;;;;;;;;;;5011857;28;20427;-49
2022/07/13 14:20:52;;;;;;;3.07;1.90;;;;;;;;;;5011101;28;20522;-50
2022/07/13 14:23:18;;;;;;;2.00;1.90;;;;;;;;;;5012041;28;20503;-50
2022/07/13 14:25:44;;;;;;;2.33;1.67;;;;;;;;;;5011896;28;20954;-49
2022/07/13 14:28:10;;;;;;;3.43;2.20;;;;;;;;;;5011707;28;20458;-49
2022/07/13 14:30:36;;;;;;;2.00;1.90;;;;;;;;;;5011328;28;20399;-50
2022/07/13 14:33:03;;;;;;;3.73;1.83;;;;;;;;;;5011874;28;20407;-49
2022/07/13 14:35:29;;;;;;;1.60;1.50;;;;;;;;;;5011872;28;20998;-49
2022/07/13 14:37:55;;;;;;;3.43;1.90;;;;;;;;;;5011500;28;20538;-49
2022/07/13 14:40:21;;;;;;;1.70;1.60;;;;;;;;;;5011213;28;20410;-49
2022/07/13 14:42:47;;;;;;;1.80;1.70;;;;;;;;;;5011522;28;20477;-49
2022/07/13 14:45:12;;;;;;;2.80;1.77;;;;;;;;;;5011705;28;20837;-49
2022/07/13 14:47:38;;;;;;;1.93;1.50;;;;;;;;;;5011524;28;20458;-49
2022/07/13 14:50:05;;;;;;;2.07;1.97;;;;;;;;;;5011585;28;20462;-49
2022/07/13 14:52:31;;;;;;;2.80;1.77;;;;;;;;;;5009906;28;20434;-50
2022/07/13 14:54:58;;;;;;;1.97;1.87;;;;;;;;;;5011574;28;20395;-50
2022/07/13 14:57:24;;;;;;;7.33;2.33;;;;;;;;;;5014648;28;20956;-50